Time;durP1;ratioP1;P1;durP2;ratioP2;P2;SDS_P1;SDS_P2;PMS_P1;PMS_P2;Temp;Humidity;BMP_temperature;BMP_pressure;BME280_temperature;BME280_humidity;BME280_pressure;Samples;Min_cycle;Max_cycle;Signal;HPM_P1;HPM_P2
2023/03/23 00:10:36;;;;;;;2.10;1.00;;;10.50;99.90;;;;;;6401342;22;20025;-84
2023/03/23 00:13:02;;;;;;;2.70;1.20;;;10.50;99.90;;;;;;6241043;22;20316;-85
2023/03/23 00:15:32;;;;;;;5.07;1.73;;;10.50;99.90;;;;;;6215877;22;20033;-85
2023/03/23 00:18:02;;;;;;;5.65;1.90;;;10.50;99.90;;;;;;6217651;22;20017;-84
2023/03/23 00:20:39;;;;;;;4.00;1.95;;;10.60;99.90;;;;;;6216703;22;20092;-84
2023/03/23 00:23:06;;;;;;;;;;;10.60;99.90;;;;;;6242972;22;20056;-85
2023/03/23 00:25:32;;;;;;;6.60;2.13;;;10.60;99.90;;;;;;6241972;22;20323;-85
2023/03/23 00:27:58;;;;;;;3.42;1.30;;;10.60;99.90;;;;;;6241269;22;20018;-85
2023/03/23 00:30:24;;;;;;;3.80;1.50;;;10.60;99.90;;;;;;6241323;22;20014;-85
2023/03/23 00:32:50;;;;;;;4.32;1.60;;;10.50;99.90;;;;;;6266491;22;20021;-85
2023/03/23 00:35:17;;;;;;;2.40;1.10;;;10.50;99.90;;;;;;6266985;22;20010;-85
2023/03/23 00:37:43;;;;;;;;;;;10.50;99.90;;;;;;6267108;22;20369;-85
2023/03/23 00:40:10;;;;;;;2.83;1.33;;;10.50;99.90;;;;;;6266406;22;20323;-85
2023/03/23 00:42:37;;;;;;;;;;;10.40;99.90;;;;;;6267548;22;20014;-86
2023/03/23 00:45:10;;;;;;;4.00;1.88;;;10.40;99.90;;;;;;6266460;22;19914;-85
2023/03/23 00:47:37;;;;;;;3.75;1.73;;;10.40;99.90;;;;;;6242701;22;20041;-85
2023/03/23 00:50:05;;;;;;;4.82;2.13;;;10.50;99.90;;;;;;6266515;22;20121;-85
2023/03/23 00:52:31;;;;;;;5.38;2.22;;;10.50;99.90;;;;;;6266369;22;20017;-86
2023/03/23 00:54:57;;;;;;;5.03;2.60;;;10.50;99.90;;;;;;6241529;22;20021;-84
2023/03/23 00:57:24;;;;;;;6.05;3.33;;;10.50;99.90;;;;;;6241584;22;20070;-86
2023/03/23 00:59:50;;;;;;;;;;;10.50;99.90;;;;;;6241588;22;20404;-86
2023/03/23 01:02:17;;;;;;;7.43;3.95;;;10.60;99.90;;;;;;6265978;22;19971;-86
2023/03/23 01:04:44;;;;;;;8.55;4.30;;;10.60;99.90;;;;;;6241555;22;20018;-88
2023/03/23 01:07:12;;;;;;;;;;;10.60;99.90;;;;;;6216915;22;20016;-88
2023/03/23 01:09:39;;;;;;;8.15;4.75;;;10.70;99.90;;;;;;6241230;22;19918;-90
2023/03/23 01:12:06;;;;;;;10.48;4.43;;;10.70;99.90;;;;;;6240780;22;20078;-85
2023/03/23 01:14:32;;;;;;;6.40;2.97;;;10.70;99.90;;;;;;6265411;22;20006;-86
2023/03/23 01:16:57;;;;;;;8.18;3.10;;;10.70;99.90;;;;;;6240744;22;20045;-86
2023/03/23 01:19:23;;;;;;;5.30;2.60;;;10.70;99.90;;;;;;6241537;22;20503;-86
2023/03/23 01:21:49;;;;;;;4.73;2.27;;;10.70;99.90;;;;;;6266633;22;20013;-89
2023/03/23 01:24:14;;;;;;;6.90;2.20;;;10.70;99.90;;;;;;6373835;22;20021;-86
2023/03/23 01:26:40;;;;;;;3.43;1.67;;;10.70;99.90;;;;;;6241681;22;20057;-88
2023/03/23 01:29:06;;;;;;;4.07;1.27;;;10.70;99.90;;;;;;6241578;22;20049;-87
2023/03/23 01:31:32;;;;;;;2.43;0.90;;;10.60;99.90;;;;;;6240880;22;20022;-88
2023/03/23 01:33:57;;;;;;;4.40;1.40;;;10.60;99.90;;;;;;6266948;22;20259;-90
2023/03/23 01:36:28;;;;;;;3.43;1.60;;;10.50;99.90;;;;;;6402251;22;20014;-87
2023/03/23 01:38:55;;;;;;;1.98;0.95;;;10.60;99.90;;;;;;6266431;22;20017;-87
2023/03/23 01:41:27;;;;;;;3.78;1.33;;;10.60;99.90;;;;;;6401567;22;20054;-91
2023/03/23 01:44:16;;;;;;;3.72;1.67;;;10.60;99.90;;;;;;6216214;22;20009;-88
2023/03/23 01:46:43;;;;;;;3.60;1.23;;;10.60;99.90;;;;;;6329934;22;20020;-89
2023/03/23 01:49:16;;;;;;;5.57;1.65;;;10.60;99.90;;;;;;6241017;22;20017;-88
2023/03/23 01:51:55;;;;;;;3.60;1.73;;;10.60;99.90;;;;;;6266194;22;20519;-89
2023/03/23 01:54:23;;;;;;;4.70;2.30;;;10.50;99.90;;;;;;6241248;22;20021;-90
2023/03/23 01:57:15;;;;;;;7.53;2.60;;;10.60;99.90;;;;;;6266199;22;20350;-88
2023/03/23 02:00:16;;;;;;;4.63;2.50;;;10.60;99.90;;;;;;6241164;22;20018;-88
2023/03/23 02:02:52;;;;;;;6.50;2.90;;;10.60;99.90;;;;;;6266439;22;20076;-87
2023/03/23 02:05:28;;;;;;;6.43;2.97;;;10.60;99.90;;;;;;6241076;22;20056;-87
2023/03/23 02:07:58;;;;;;;5.45;2.83;;;10.70;99.90;;;;;;6265900;22;20018;-89
2023/03/23 02:10:24;;;;;;;7.32;2.95;;;10.70;99.90;;;;;;6266105;22;20338;-87
2023/03/23 02:12:50;;;;;;;6.40;2.60;;;10.70;99.90;;;;;;6267218;22;20014;-94
2023/03/23 02:15:16;;;;;;;6.32;2.97;;;10.80;99.90;;;;;;6242222;22;20017;-87
2023/03/23 02:18:16;;;;;;;6.40;2.70;;;10.80;99.90;;;;;;6242625;22;20029;-87
2023/03/23 02:21:09;;;;;;;8.52;3.20;;;10.80;99.90;;;;;;6267434;22;20014;-88
2023/03/23 02:24:09;;;;;;;7.57;2.83;;;10.90;99.90;;;;;;6267813;22;20082;-86
2023/03/23 02:26:37;;;;;;;7.43;2.95;;;10.90;99.90;;;;;;6268005;22;20025;-86
2023/03/23 02:29:16;;;;;;;5.55;2.63;;;10.90;99.90;;;;;;6267468;22;20010;-88
2023/03/23 02:32:11;;;;;;;5.97;2.38;;;10.90;99.90;;;;;;6242248;22;20014;-87
2023/03/23 02:34:47;;;;;;;6.18;2.67;;;10.90;99.90;;;;;;6403557;22;20014;-87
2023/03/23 02:37:46;;;;;;;4.75;2.42;;;10.90;99.90;;;;;;6268056;22;20055;-86
2023/03/23 02:40:35;;;;;;;5.97;2.33;;;11.00;99.90;;;;;;6403294;22;20010;-87
2023/03/23 02:43:03;;;;;;;5.15;2.50;;;11.00;99.90;;;;;;6267778;22;20052;-89
2023/03/23 02:45:30;;;;;;;5.07;2.33;;;11.10;99.90;;;;;;6217261;22;20050;-87
2023/03/23 02:47:58;;;;;;;5.90;2.15;;;11.10;99.90;;;;;;6267378;22;20040;-86
2023/03/23 02:50:26;;;;;;;5.43;2.58;;;11.10;99.90;;;;;;6267076;22;20017;-87
2023/03/23 02:52:55;;;;;;;5.15;2.30;;;11.10;99.90;;;;;;6403580;22;20093;-88
2023/03/23 02:55:25;;;;;;;4.82;2.25;;;11.10;99.90;;;;;;6402703;22;20068;-86
2023/03/23 02:57:52;;;;;;;3.90;1.75;;;11.10;99.90;;;;;;6267213;22;20014;-88
2023/03/23 03:00:19;;;;;;;5.47;2.08;;;11.10;99.90;;;;;;6241741;22;20014;-87
2023/03/23 03:02:54;;;;;;;4.22;2.13;;;11.10;99.90;;;;;;6267896;22;20343;-89
2023/03/23 03:05:35;;;;;;;5.45;2.38;;;11.10;99.90;;;;;;6267031;22;20010;-86
2023/03/23 03:08:07;;;;;;;7.10;2.40;;;11.10;99.90;;;;;;6266862;22;20025;-86
2023/03/23 03:10:43;;;;;;;7.00;1.80;;;11.10;99.90;;;;;;6267433;22;20093;-85
2023/03/23 03:13:29;;;;;;;3.88;1.88;;;11.10;99.90;;;;;;6242553;22;20029;-88
2023/03/23 03:16:01;;;;;;;4.45;1.80;;;11.10;99.90;;;;;;6266919;22;20045;-87
2023/03/23 03:18:42;;;;;;;4.50;1.80;;;11.10;99.90;;;;;;6267020;22;20066;-87
2023/03/23 03:21:12;;;;;;;4.25;1.42;;;11.20;99.90;;;;;;6402674;22;20063;-87
2023/03/23 03:23:41;;;;;;;4.55;1.63;;;11.20;99.90;;;;;;6266794;22;20334;-87
2023/03/23 03:26:10;;;;;;;4.13;1.73;;;11.20;99.90;;;;;;6242234;22;20021;-86
2023/03/23 03:28:36;;;;;;;6.30;1.98;;;11.20;99.90;;;;;;6402672;22;20053;-87
2023/03/23 03:31:04;;;;;;;5.50;1.52;;;11.10;99.90;;;;;;6267039;22;20014;-85
2023/03/23 03:33:34;;;;;;;3.33;1.73;;;11.10;99.90;;;;;;6242119;22;20010;-90
2023/03/23 03:36:03;;;;;;;3.80;1.45;;;11.10;99.90;;;;;;6272626;22;20056;-86
2023/03/23 03:38:29;;;;;;;3.72;1.52;;;11.20;99.90;;;;;;6266769;22;20033;-85
2023/03/23 03:40:55;;;;;;;3.67;1.40;;;11.10;99.90;;;;;;6266688;22;20485;-85
2023/03/23 03:43:21;;;;;;;;;;;11.20;99.90;;;;;;6268026;22;20312;-86
2023/03/23 03:45:47;;;;;;;4.22;1.48;;;11.10;99.90;;;;;;6266950;22;20322;-85
2023/03/23 03:48:13;;;;;;;5.33;1.70;;;11.10;99.90;;;;;;6267439;22;20112;-89
2023/03/23 03:50:39;;;;;;;3.45;1.20;;;11.10;99.90;;;;;;6241893;22;20010;-87
2023/03/23 03:53:06;;;;;;;3.13;1.50;;;11.10;99.90;;;;;;6242219;22;20438;-88
2023/03/23 03:55:35;;;;;;;;;;;11.10;99.90;;;;;;6267245;22;20014;-90
2023/03/23 03:58:04;;;;;;;5.82;1.80;;;11.10;99.90;;;;;;6242270;22;19914;-89
2023/03/23 04:00:30;;;;;;;3.63;1.38;;;11.10;99.90;;;;;;6265859;22;20022;-87
2023/03/23 04:02:56;;;;;;;3.33;1.50;;;11.20;99.90;;;;;;6266960;22;20021;-85
2023/03/23 04:05:24;;;;;;;2.78;1.30;;;11.10;99.90;;;;;;6400956;22;20458;-85
2023/03/23 04:07:51;;;;;;;2.75;1.05;;;11.10;99.90;;;;;;6266805;22;20021;-88
2023/03/23 04:10:21;;;;;;;4.47;1.50;;;11.10;99.90;;;;;;6267210;22;20339;-83
2023/03/23 04:12:50;;;;;;;3.55;1.17;;;11.00;99.90;;;;;;6266629;22;20009;-86
2023/03/23 04:15:16;;;;;;;4.18;1.48;;;11.00;99.90;;;;;;6241706;22;20032;-85
2023/03/23 04:17:42;;;;;;;3.10;1.23;;;10.90;99.90;;;;;;6266574;22;20462;-87
2023/03/23 04:20:14;;;;;;;3.85;1.23;;;10.90;99.90;;;;;;6267561;22;20089;-86
2023/03/23 04:22:43;;;;;;;4.30;1.30;;;10.80;99.90;;;;;;6266636;22;20060;-85
2023/03/23 04:25:10;;;;;;;3.33;0.85;;;10.80;99.90;;;;;;6266590;22;20052;-86
2023/03/23 04:27:36;;;;;;;2.70;1.02;;;10.80;99.90;;;;;;6266721;22;20069;-85
2023/03/23 04:30:04;;;;;;;1.20;0.60;;;10.70;99.90;;;;;;6266859;22;20092;-85
2023/03/23 04:32:30;;;;;;;2.78;0.60;;;10.70;99.90;;;;;;6266747;22;20047;-87
2023/03/23 04:34:57;;;;;;;4.40;0.63;;;10.60;99.90;;;;;;6241297;22;20041;-85
2023/03/23 04:37:34;;;;;;;4.32;0.98;;;10.60;99.90;;;;;;6265997;22;20105;-85
2023/03/23 04:40:01;;;;;;;2.42;0.93;;;10.60;99.90;;;;;;6267001;22;20018;-89
2023/03/23 04:42:29;;;;;;;2.08;0.73;;;10.60;99.90;;;;;;6266731;22;20098;-89
2023/03/23 04:44:59;;;;;;;1.38;0.50;;;10.50;99.90;;;;;;6402410;22;20166;-88
2023/03/23 04:47:40;;;;;;;1.33;0.40;;;10.50;99.90;;;;;;6217727;22;20010;-86
2023/03/23 04:50:08;;;;;;;2.95;0.70;;;10.50;99.90;;;;;;6241420;22;20017;-89
2023/03/23 04:52:33;;;;;;;2.95;0.77;;;10.50;99.90;;;;;;6241673;22;20018;-88
2023/03/23 04:54:59;;;;;;;5.20;1.35;;;10.50;99.90;;;;;;6217407;22;20078;-85
2023/03/23 04:57:28;;;;;;;1.93;0.77;;;10.50;99.90;;;;;;6267313;22;20096;-87
2023/03/23 04:59:54;;;;;;;2.30;0.80;;;10.40;99.90;;;;;;6241754;22;20052;-86
2023/03/23 05:02:19;;;;;;;1.83;0.70;;;10.40;99.90;;;;;;6266500;22;20018;-87
2023/03/23 05:04:45;;;;;;;2.20;0.50;;;10.40;99.90;;;;;;6216031;22;20109;-88
2023/03/23 05:07:11;;;;;;;2.20;0.60;;;10.40;99.90;;;;;;6267134;22;20014;-88
2023/03/23 05:09:37;;;;;;;2.80;0.77;;;10.40;99.90;;;;;;6401963;22;20014;-86
2023/03/23 05:12:08;;;;;;;2.30;0.40;;;10.40;99.90;;;;;;6241102;22;20439;-85
2023/03/23 05:14:34;;;;;;;2.50;0.55;;;10.40;99.90;;;;;;6241150;22;20462;-85
2023/03/23 05:17:00;;;;;;;4.70;0.70;;;10.40;99.90;;;;;;6215731;22;20013;-87
2023/03/23 05:19:27;;;;;;;1.80;0.40;;;10.40;99.90;;;;;;6241113;22;20014;-88
2023/03/23 05:21:56;;;;;;;4.85;0.90;;;10.30;99.90;;;;;;6241010;22;20014;-85
2023/03/23 05:24:24;;;;;;;1.40;0.50;;;10.40;99.90;;;;;;6240265;22;20014;-83
2023/03/23 05:26:52;;;;;;;2.90;0.77;;;10.40;99.90;;;;;;6216089;22;20017;-84
2023/03/23 05:29:17;;;;;;;3.45;1.00;;;10.40;99.90;;;;;;6239932;22;20021;-85
2023/03/23 05:31:44;;;;;;;3.63;1.43;;;10.40;99.90;;;;;;6265876;22;20014;-85
2023/03/23 05:34:09;;;;;;;4.78;0.90;;;10.50;99.90;;;;;;6216353;22;20017;-86
2023/03/23 05:36:47;;;;;;;3.87;1.20;;;10.50;99.90;;;;;;6191081;22;20017;-89
2023/03/23 05:39:14;;;;;;;3.47;1.13;;;10.60;99.90;;;;;;6241482;22;20018;-88
2023/03/23 05:41:46;;;;;;;4.00;1.27;;;10.60;99.90;;;;;;6217014;22;20050;-86
2023/03/23 05:44:13;;;;;;;4.68;1.75;;;10.60;99.90;;;;;;6241427;22;20013;-85
2023/03/23 05:46:39;;;;;;;4.18;1.00;;;10.70;99.90;;;;;;6266098;22;20053;-85
2023/03/23 05:49:05;;;;;;;3.40;1.52;;;10.70;99.90;;;;;;6267417;22;20014;-85
2023/03/23 05:51:31;;;;;;;3.83;1.08;;;10.60;99.90;;;;;;6241926;22;20021;-84
2023/03/23 05:53:57;;;;;;;6.85;1.50;;;10.70;99.90;;;;;;6268133;22;20014;-86
2023/03/23 05:56:49;;;;;;;3.90;0.97;;;10.70;99.90;;;;;;6267574;22;20024;-86
2023/03/23 05:59:27;;;;;;;8.48;1.15;;;10.70;99.90;;;;;;6242422;22;20013;-85
2023/03/23 06:01:57;;;;;;;4.70;0.93;;;10.70;99.90;;;;;;6217079;22;20047;-84
2023/03/23 06:04:24;;;;;;;3.42;1.27;;;10.70;99.90;;;;;;6403639;22;20491;-86
2023/03/23 06:06:53;;;;;;;5.43;1.05;;;10.70;99.90;;;;;;6267130;22;20014;-84
2023/03/23 06:09:19;;;;;;;4.57;0.85;;;10.70;99.90;;;;;;6266866;22;20399;-86
2023/03/23 06:11:47;;;;;;;5.57;0.98;;;10.70;99.90;;;;;;6242549;22;20028;-86
2023/03/23 06:14:13;;;;;;;7.38;1.27;;;10.70;99.90;;;;;;6263122;22;20040;-82
2023/03/23 06:16:39;;;;;;;4.97;0.90;;;10.70;99.90;;;;;;6244554;22;20014;-92
2023/03/23 06:19:04;;;;;;;4.13;0.83;;;10.70;99.90;;;;;;6246059;22;20507;-91
2023/03/23 06:21:31;;;;;;;8.80;0.90;;;10.70;99.90;;;;;;6270464;22;20049;-91
2023/03/23 06:23:59;;;;;;;5.22;1.02;;;10.70;99.90;;;;;;6413398;22;20058;-82
2023/03/23 06:26:44;;;;;;;9.82;1.45;;;10.70;99.90;;;;;;6255485;22;20018;-82
2023/03/23 06:29:13;;;;;;;6.05;0.90;;;10.70;99.90;;;;;;6277976;22;20458;-91
2023/03/23 06:31:42;;;;;;;7.80;0.93;;;10.70;99.90;;;;;;6273223;22;20096;-87
2023/03/23 06:34:08;;;;;;;6.30;0.93;;;10.80;99.90;;;;;;6407566;22;20025;-92
2023/03/23 06:36:35;;;;;;;4.65;0.88;;;10.70;99.90;;;;;;6406421;22;20522;-88
2023/03/23 06:39:04;;;;;;;5.75;1.20;;;10.70;99.90;;;;;;6273993;22;20343;-86
2023/03/23 06:41:56;;;;;;;5.70;1.38;;;10.70;99.90;;;;;;6249895;22;20036;-89
2023/03/23 06:44:50;;;;;;;8.23;1.05;;;10.70;99.90;;;;;;6246888;22;20018;-88
2023/03/23 06:47:16;;;;;;;4.88;1.13;;;10.70;99.90;;;;;;6269809;22;20018;-83
2023/03/23 06:49:43;;;;;;;4.30;0.80;;;10.70;99.90;;;;;;6267057;22;20521;-82
2023/03/23 06:52:08;;;;;;;3.88;0.80;;;10.70;99.90;;;;;;6242549;22;20093;-89
2023/03/23 06:54:34;;;;;;;4.90;0.60;;;10.70;99.90;;;;;;6242728;22;20053;-87
2023/03/23 06:57:00;;;;;;;6.10;1.07;;;10.70;99.90;;;;;;6403010;22;20025;-85
2023/03/23 06:59:26;;;;;;;4.68;0.60;;;10.60;99.90;;;;;;6267363;22;20016;-86
2023/03/23 07:01:52;;;;;;;4.70;0.63;;;10.60;99.90;;;;;;6403528;22;20047;-90
2023/03/23 07:04:18;;;;;;;3.83;0.47;;;10.50;99.90;;;;;;6241934;22;20018;-87
2023/03/23 07:06:43;;;;;;;5.60;0.67;;;10.50;99.90;;;;;;6267387;22;20017;-83
2023/03/23 07:09:09;;;;;;;3.13;0.50;;;10.50;99.90;;;;;;6267116;22;20443;-88
2023/03/23 07:11:35;;;;;;;3.37;0.40;;;10.40;99.90;;;;;;6267721;22;20014;-88
2023/03/23 07:14:01;;;;;;;7.72;0.50;;;10.40;99.90;;;;;;6242723;22;20357;-86
2023/03/23 07:16:27;;;;;;;2.30;0.43;;;10.30;99.90;;;;;;6267441;22;20025;-85
2023/03/23 07:18:53;;;;;;;1.80;0.55;;;10.30;99.90;;;;;;6267563;22;20018;-85
2023/03/23 07:21:18;;;;;;;2.10;0.50;;;10.30;99.90;;;;;;6265245;22;20022;-84
2023/03/23 07:23:46;;;;;;;6.37;0.83;;;10.40;99.90;;;;;;6217379;22;20053;-84
2023/03/23 07:26:13;;;;;;;5.97;0.80;;;10.40;99.90;;;;;;6267573;22;20018;-86
2023/03/23 07:28:40;;;;;;;;;;;10.40;99.90;;;;;;6217786;22;20021;-92
2023/03/23 07:31:08;;;;;;;5.53;1.00;;;10.40;99.90;;;;;;6267442;22;20353;-90
2023/03/23 07:33:34;;;;;;;6.75;0.73;;;10.40;99.90;;;;;;6192908;22;20018;-87
2023/03/23 07:36:15;;;;;;;3.35;0.95;;;10.40;99.90;;;;;;6266791;22;20021;-87
2023/03/23 07:39:12;;;;;;;5.63;0.70;;;10.40;99.90;;;;;;6242948;22;20014;-89
2023/03/23 07:41:43;;;;;;;8.73;1.20;;;10.40;99.90;;;;;;6240586;22;20025;-84
2023/03/23 07:44:09;;;;;;;4.30;0.82;;;10.50;99.90;;;;;;6242042;22;20465;-86
2023/03/23 07:46:35;;;;;;;6.93;1.43;;;10.80;99.90;;;;;;6192872;22;20010;-90
2023/03/23 07:49:05;;;;;;;7.13;1.20;;;10.90;99.90;;;;;;6217250;22;20315;-88
2023/03/23 07:51:32;;;;;;;6.03;0.90;;;11.00;99.90;;;;;;6268340;22;20442;-88
2023/03/23 07:54:10;;;;;;;;;;;11.20;99.90;;;;;;6268510;22;20010;-92
2023/03/23 07:56:39;;;;;;;8.60;1.95;;;11.40;99.90;;;;;;6243166;22;20239;-89
2023/03/23 07:59:05;;;;;;;7.70;1.30;;;11.40;99.90;;;;;;6243130;22;20048;-88
2023/03/23 08:01:32;;;;;;;6.72;1.25;;;11.40;99.90;;;;;;6218208;22;20014;-88
2023/03/23 08:03:59;;;;;;;12.23;3.08;;;11.30;99.90;;;;;;6242910;22;20398;-89
2023/03/23 08:06:56;;;;;;;6.45;1.30;;;11.30;99.90;;;;;;6243444;22;20018;-92
2023/03/23 08:09:37;;;;;;;11.85;1.77;;;11.20;99.90;;;;;;6242574;22;20018;-89
2023/03/23 08:12:04;;;;;;;8.40;1.15;;;11.20;99.90;;;;;;6241653;22;20082;-86
2023/03/23 08:14:30;;;;;;;;;;;11.20;99.90;;;;;;6242130;22;20351;-83
2023/03/23 08:16:56;;;;;;;6.50;1.10;;;11.20;99.90;;;;;;6267299;22;19988;-85
2023/03/23 08:19:22;;;;;;;8.73;1.33;;;11.10;99.90;;;;;;6267531;22;20355;-85
2023/03/23 08:21:49;;;;;;;;;;;11.10;99.90;;;;;;6267647;22;20021;-85
2023/03/23 08:27:04;;;;;;;10.98;1.75;;;11.20;99.90;;;;;;6401935;22;20022;-81
2023/03/23 08:29:30;;;;;;;9.65;1.40;;;11.30;99.90;;;;;;6266881;22;20018;-83
2023/03/23 08:31:57;;;;;;;5.73;1.60;;;11.30;99.90;;;;;;6267336;22;20127;-88
2023/03/23 08:34:24;;;;;;;7.25;1.50;;;11.30;99.90;;;;;;6241693;22;20014;-86
2023/03/23 08:36:51;;;;;;;5.43;0.98;;;11.40;99.90;;;;;;6266814;22;20062;-86
2023/03/23 08:39:26;;;;;;;6.68;1.25;;;11.40;99.90;;;;;;6268208;22;20018;-85
2023/03/23 08:42:18;;;;;;;10.27;1.42;;;11.40;99.90;;;;;;6267128;22;20029;-84
2023/03/23 08:44:49;;;;;;;11.25;1.45;;;11.40;99.90;;;;;;6267108;22;20021;-87
2023/03/23 08:47:15;;;;;;;5.57;1.33;;;11.40;99.90;;;;;;6242159;22;20049;-90
2023/03/23 08:49:42;;;;;;;;;;;11.40;99.90;;;;;;6267971;22;20014;-82
2023/03/23 08:52:09;;;;;;;6.18;1.52;;;11.50;99.90;;;;;;6241245;22;19957;-84
2023/03/23 08:54:35;;;;;;;8.80;1.00;;;11.50;99.90;;;;;;6266960;22;20041;-88
2023/03/23 08:57:02;;;;;;;10.77;2.20;;;11.60;99.90;;;;;;6402729;22;20014;-84
2023/03/23 08:59:28;;;;;;;6.97;1.45;;;11.60;99.90;;;;;;6263676;22;20059;-83
2023/03/23 09:01:54;;;;;;;7.65;1.10;;;11.60;99.90;;;;;;6267583;22;20022;-83
2023/03/23 09:04:20;;;;;;;7.60;1.08;;;11.60;99.90;;;;;;6267738;22;20018;-87
2023/03/23 09:06:46;;;;;;;8.38;1.40;;;11.70;99.90;;;;;;6267730;22;20453;-86
2023/03/23 09:09:12;;;;;;;6.78;0.98;;;11.70;99.90;;;;;;6267622;22;20359;-84
2023/03/23 09:11:39;;;;;;;7.97;1.42;;;11.70;99.90;;;;;;6242120;22;20010;-88
2023/03/23 09:14:07;;;;;;;10.35;1.17;;;11.80;99.90;;;;;;6242232;22;20102;-90
2023/03/23 09:16:33;;;;;;;11.75;1.77;;;11.80;99.90;;;;;;6267625;22;20017;-93
2023/03/23 09:19:00;;;;;;;9.48;1.33;;;11.80;99.90;;;;;;6242858;22;20014;-92
2023/03/23 09:21:27;;;;;;;7.22;1.08;;;11.80;99.90;;;;;;6243985;22;20354;-87
2023/03/23 09:23:58;;;;;;;11.88;1.42;;;11.90;99.90;;;;;;6272388;22;20472;-85
2023/03/23 09:26:26;;;;;;;8.52;1.92;;;11.90;99.90;;;;;;6251970;22;20001;-90
2023/03/23 09:28:52;;;;;;;8.55;1.13;;;11.90;99.90;;;;;;6226886;22;20489;-87
2023/03/23 09:31:22;;;;;;;8.70;1.00;;;11.90;99.90;;;;;;6270184;22;20018;-89
2023/03/23 09:33:51;;;;;;;11.65;2.60;;;12.00;99.90;;;;;;6267146;22;20335;-85
2023/03/23 09:36:21;;;;;;;8.63;1.70;;;12.10;99.90;;;;;;6242372;22;20025;-85
2023/03/23 09:38:48;;;;;;;6.72;1.50;;;12.20;99.90;;;;;;6243853;22;20021;-87
2023/03/23 09:41:32;;;;;;;7.63;1.05;;;12.30;99.90;;;;;;6243428;22;20028;-94
2023/03/23 09:44:04;;;;;;;9.85;1.35;;;12.40;99.90;;;;;;6403214;22;20018;-92
2023/03/23 09:46:53;;;;;;;5.78;1.20;;;12.40;99.90;;;;;;6266333;22;20063;-90
2023/03/23 09:49:32;;;;;;;8.68;1.30;;;12.40;99.90;;;;;;6267312;22;20014;-90
2023/03/23 09:52:08;;;;;;;6.43;1.50;;;12.20;99.90;;;;;;6242563;22;20385;-91
2023/03/23 09:54:46;;;;;;;8.52;1.38;;;12.10;99.90;;;;;;6243175;22;20097;-92
2023/03/23 09:57:27;;;;;;;7.00;1.33;;;12.00;99.90;;;;;;6241763;22;20010;-88
2023/03/23 10:00:05;;;;;;;4.60;1.00;;;12.00;99.90;;;;;;6266315;22;20107;-91
2023/03/23 10:03:02;;;;;;;5.25;0.77;;;11.90;99.90;;;;;;6240678;22;20377;-94
2023/03/23 10:05:41;;;;;;;8.00;1.30;;;12.00;99.90;;;;;;6239490;22;20323;-88
2023/03/23 10:08:18;;;;;;;8.43;1.02;;;12.10;99.90;;;;;;6265524;22;20010;-85
2023/03/23 10:10:52;;;;;;;9.98;1.77;;;12.40;99.90;;;;;;6266499;22;20067;-90
2023/03/23 10:13:37;;;;;;;10.73;2.10;;;12.50;99.90;;;;;;6265572;22;20018;-88
2023/03/23 10:17:07;;;;;;;6.80;1.80;;;12.70;99.90;;;;;;6402012;22;20014;-89
2023/03/23 10:20:22;;;;;;;9.75;2.70;;;12.90;99.90;;;;;;6279992;22;20086;-85
2023/03/23 10:23:35;;;;;;;7.00;1.52;;;13.20;99.90;;;;;;6279535;22;20023;-90
2023/03/23 10:26:17;;;;;;;5.95;1.50;;;13.30;99.90;;;;;;6250856;22;20501;-85
2023/03/23 10:28:46;;;;;;;12.20;1.90;;;13.40;99.90;;;;;;6252451;22;20034;-83
2023/03/23 10:31:17;;;;;;;6.97;1.15;;;13.50;99.90;;;;;;6242054;22;20018;-87
2023/03/23 10:33:49;;;;;;;3.63;0.95;;;13.60;99.90;;;;;;6404277;22;20071;-88
2023/03/23 10:36:51;;;;;;;5.18;0.95;;;13.70;99.90;;;;;;6271855;22;20014;-86
2023/03/23 10:39:26;;;;;;;5.75;1.08;;;13.80;99.90;;;;;;6366656;22;20013;-84
2023/03/23 10:41:52;;;;;;;7.50;1.15;;;13.90;99.90;;;;;;6269027;22;20316;-87
2023/03/23 10:44:21;;;;;;;5.63;1.23;;;13.90;99.90;;;;;;6267345;22;20094;-86
2023/03/23 10:47:03;;;;;;;7.55;0.82;;;13.80;99.90;;;;;;6242446;22;20334;-86
2023/03/23 10:49:54;;;;;;;9.82;1.35;;;13.90;99.90;;;;;;6267568;22;20435;-87
2023/03/23 10:52:42;;;;;;;5.43;1.00;;;13.90;99.90;;;;;;6242621;22;20014;-89
2023/03/23 10:55:34;;;;;;;7.45;1.00;;;13.80;99.90;;;;;;6243006;22;20037;-96
2023/03/23 10:58:06;;;;;;;8.95;1.05;;;13.70;99.90;;;;;;6243552;22;20025;-94
2023/03/23 11:00:33;;;;;;;8.45;1.20;;;13.60;99.90;;;;;;6244040;22;20021;-89
2023/03/23 11:03:03;;;;;;;;;;;13.50;99.90;;;;;;6217402;22;20204;-92
2023/03/23 11:05:43;;;;;;;8.63;1.63;;;13.60;99.90;;;;;;6268333;22;19914;-94
2023/03/23 11:08:34;;;;;;;6.35;1.40;;;13.60;99.90;;;;;;6243057;22;20017;-94
2023/03/23 11:11:21;;;;;;;4.55;0.82;;;13.50;99.90;;;;;;6243358;22;20046;-95
2023/03/23 11:13:51;;;;;;;5.47;1.53;;;13.40;99.90;;;;;;6269995;22;20053;-90
2023/03/23 11:16:30;;;;;;;6.05;1.25;;;13.30;99.90;;;;;;6268684;22;20251;-92
2023/03/23 11:19:11;;;;;;;9.07;1.70;;;13.20;99.90;;;;;;6243098;22;20017;-94
2023/03/23 11:21:38;;;;;;;8.63;1.65;;;13.10;99.90;;;;;;6242834;22;20392;-94
2023/03/23 11:24:05;;;;;;;6.45;1.27;;;13.00;99.90;;;;;;6242517;22;20147;-88
2023/03/23 11:26:37;;;;;;;6.28;1.05;;;12.90;99.90;;;;;;6267130;22;20021;-90
2023/03/23 11:29:19;;;;;;;5.22;1.73;;;12.80;99.90;;;;;;6242402;22;20061;-95
2023/03/23 11:31:50;;;;;;;6.57;0.93;;;12.80;99.90;;;;;;6242151;22;20049;-88
2023/03/23 11:34:22;;;;;;;6.32;1.13;;;12.90;99.90;;;;;;6243210;22;20010;-92
2023/03/23 11:37:01;;;;;;;7.10;1.52;;;13.00;99.90;;;;;;6242941;22;20099;-93
2023/03/23 11:42:13;;;;;;;7.60;1.00;;;13.30;99.90;;;;;;6404082;22;20086;-87
2023/03/23 11:44:46;;;;;;;4.82;1.02;;;13.50;99.90;;;;;;6247356;22;20017;-87
2023/03/23 11:47:24;;;;;;;4.57;0.93;;;13.50;99.90;;;;;;6346867;22;20024;-93
2023/03/23 11:50:20;;;;;;;9.25;1.13;;;13.50;99.90;;;;;;6273044;22;20014;-93
2023/03/23 11:53:07;;;;;;;8.77;2.08;;;13.50;99.90;;;;;;6272957;22;20049;-86
2023/03/23 11:55:43;;;;;;;8.02;1.10;;;13.60;99.90;;;;;;6270521;22;20045;-93
2023/03/23 11:58:14;;;;;;;6.30;0.93;;;13.80;99.90;;;;;;6272189;22;20025;-96
2023/03/23 12:01:27;;;;;;;5.25;0.82;;;14.10;99.90;;;;;;6408331;22;20439;-94
2023/03/23 12:04:18;;;;;;;3.22;0.90;;;14.40;99.90;;;;;;6244430;22;20017;-85
2023/03/23 12:06:46;;;;;;;4.75;0.88;;;14.40;99.90;;;;;;6406765;22;20346;-85
2023/03/23 12:09:21;;;;;;;5.20;0.93;;;14.30;99.90;;;;;;6273943;22;20043;-85
2023/03/23 12:12:16;;;;;;;7.60;1.10;;;14.20;99.90;;;;;;6245198;22;20415;-90
2023/03/23 12:15:15;;;;;;;7.78;1.05;;;14.30;99.90;;;;;;6272671;22;20021;-87
2023/03/23 12:18:17;;;;;;;3.88;0.52;;;14.40;99.90;;;;;;6270784;22;20045;-88
2023/03/23 12:21:02;;;;;;;3.63;0.80;;;14.60;99.90;;;;;;6277498;22;20014;-86
2023/03/23 12:23:47;;;;;;;5.70;0.80;;;14.90;99.90;;;;;;6252091;22;20021;-86
2023/03/23 12:26:30;;;;;;;4.88;0.88;;;15.10;99.90;;;;;;6276829;22;20280;-86
2023/03/23 12:29:40;;;;;;;3.53;0.68;;;15.20;99.90;;;;;;6244498;22;20021;-88
2023/03/23 12:32:23;;;;;;;6.07;1.35;;;15.30;99.90;;;;;;6269424;22;20013;-84
2023/03/23 12:35:25;;;;;;;2.42;0.60;;;15.30;99.90;;;;;;6246775;22;20042;-92
2023/03/23 12:38:18;;;;;;;3.97;1.10;;;15.30;99.90;;;;;;6403817;22;20025;-92
2023/03/23 12:41:06;;;;;;;5.93;0.70;;;15.40;99.90;;;;;;6405361;22;20054;-91
2023/03/23 12:43:46;;;;;;;5.43;0.50;;;15.20;99.90;;;;;;6269035;22;20018;-86
2023/03/23 12:46:30;;;;;;;5.00;0.95;;;15.10;99.90;;;;;;6272827;22;20331;-94
2023/03/23 12:49:30;;;;;;;4.65;0.90;;;15.10;99.90;;;;;;6404440;22;20014;-90
2023/03/23 12:52:15;;;;;;;3.42;1.23;;;15.20;99.90;;;;;;6243736;22;20017;-89
2023/03/23 12:55:00;;;;;;;2.97;1.00;;;15.10;99.90;;;;;;6246940;22;20018;-85
2023/03/23 12:57:39;;;;;;;7.35;0.95;;;15.00;99.90;;;;;;6406430;22;20017;-94
2023/03/23 13:00:42;;;;;;;4.35;0.70;;;14.80;99.90;;;;;;6270543;22;20083;-86
2023/03/23 13:03:42;;;;;;;4.45;0.52;;;14.70;99.90;;;;;;6273209;22;20432;-86
2023/03/23 13:06:32;;;;;;;4.18;0.60;;;14.50;99.90;;;;;;6406032;22;20043;-89
2023/03/23 13:09:35;;;;;;;4.75;0.80;;;14.30;99.90;;;;;;6268629;22;20010;-91
2023/03/23 13:12:04;;;;;;;7.03;1.30;;;14.10;99.90;;;;;;6243938;22;20022;-88
2023/03/23 13:14:40;;;;;;;6.22;1.25;;;14.00;99.90;;;;;;6269015;22;20449;-95
2023/03/23 13:17:17;;;;;;;5.38;1.42;;;13.90;99.90;;;;;;6270524;22;20397;-89
2023/03/23 13:19:48;;;;;;;4.40;0.77;;;14.00;99.90;;;;;;6269385;22;20018;-86
2023/03/23 13:22:21;;;;;;;3.42;0.43;;;14.20;99.90;;;;;;6405072;22;20017;-88
2023/03/23 13:24:56;;;;;;;4.60;0.60;;;14.20;99.90;;;;;;6269388;22;20028;-88
2023/03/23 13:27:27;;;;;;;3.60;0.70;;;14.10;99.90;;;;;;6269990;22;20014;-87
2023/03/23 13:29:57;;;;;;;5.10;0.60;;;14.00;99.90;;;;;;6219228;22;20014;-85
2023/03/23 13:32:35;;;;;;;5.88;0.98;;;13.90;99.90;;;;;;6268891;22;20014;-86
2023/03/23 13:35:11;;;;;;;4.50;0.52;;;13.90;99.90;;;;;;6268251;22;20010;-95
2023/03/23 13:37:45;;;;;;;6.43;0.75;;;13.80;99.90;;;;;;6404079;22;20014;-87